sensor_id;sensor_type;location;lat;lon;timestamp;temperature;humidity
40253;DHT22;25972;51.854;4.534;2024-03-23T00:55:36;7.40;99.90
40253;DHT22;25972;51.854;4.534;2024-03-23T00:58:01;7.40;99.90
40253;DHT22;25972;51.854;4.534;2024-03-23T01:00:27;7.40;99.90
40253;DHT22;25972;51.854;4.534;2024-03-23T01:02:52;7.40;99.90
40253;DHT22;25972;51.854;4.534;2024-03-23T01:05:18;7.40;99.90
40253;DHT22;25972;51.854;4.534;2024-03-23T01:07:44;7.30;99.90
40253;DHT22;25972;51.854;4.534;2024-03-23T01:10:09;7.50;99.90
40253;DHT22;25972;51.854;4.534;2024-03-23T01:12:35;7.40;99.90
40253;DHT22;25972;51.854;4.534;2024-03-23T01:15:01;7.40;99.90
40253;DHT22;25972;51.854;4.534;2024-03-23T01:17:26;7.40;99.90
40253;DHT22;25972;51.854;4.534;2024-03-23T01:19:52;7.30;99.90
40253;DHT22;25972;51.854;4.534;2024-03-23T01:22:18;7.30;99.90
40253;DHT22;25972;51.854;4.534;2024-03-23T01:24:43;7.30;99.90
40253;DHT22;25972;51.854;4.534;2024-03-23T01:27:09;7.20;99.90
40253;DHT22;25972;51.854;4.534;2024-03-23T01:29:35;7.20;99.90
40253;DHT22;25972;51.854;4.534;2024-03-23T01:32:03;7.20;99.90
40253;DHT22;25972;51.854;4.534;2024-03-23T01:34:29;7.10;99.90
40253;DHT22;25972;51.854;4.534;2024-03-23T01:36:55;7.10;99.90
40253;DHT22;25972;51.854;4.534;2024-03-23T01:39:21;7.00;99.90
40253;DHT22;25972;51.854;4.534;2024-03-23T01:41:46;7.00;99.90
40253;DHT22;25972;51.854;4.534;2024-03-23T01:44:12;6.90;99.90
40253;DHT22;25972;51.854;4.534;2024-03-23T01:46:38;6.80;99.90
40253;DHT22;25972;51.854;4.534;2024-03-23T01:49:07;6.80;99.90
40253;DHT22;25972;51.854;4.534;2024-03-23T01:51:34;6.80;99.90
40253;DHT22;25972;51.854;4.534;2024-03-23T01:54:01;6.70;99.90
40253;DHT22;25972;51.854;4.534;2024-03-23T01:56:32;6.70;99.90
40253;DHT22;25972;51.854;4.534;2024-03-23T01:59:05;6.80;99.90
40253;DHT22;25972;51.854;4.534;2024-03-23T02:01:31;6.70;99.90
40253;DHT22;25972;51.854;4.534;2024-03-23T02:03:57;6.70;99.90
40253;DHT22;25972;51.854;4.534;2024-03-23T02:06:24;6.70;99.90
40253;DHT22;25972;51.854;4.534;2024-03-23T02:08:50;6.70;99.90
40253;DHT22;25972;51.854;4.534;2024-03-23T02:11:16;6.70;99.90
40253;DHT22;25972;51.854;4.534;2024-03-23T02:13:42;6.60;99.90
40253;DHT22;25972;51.854;4.534;2024-03-23T02:16:07;6.70;99.90
40253;DHT22;25972;51.854;4.534;2024-03-23T02:18:34;6.60;99.90
40253;DHT22;25972;51.854;4.534;2024-03-23T02:20:59;6.60;99.90
40253;DHT22;25972;51.854;4.534;2024-03-23T02:23:25;6.60;99.90
40253;DHT22;25972;51.854;4.534;2024-03-23T02:25:51;6.50;99.90
40253;DHT22;25972;51.854;4.534;2024-03-23T02:28:18;6.50;99.90
40253;DHT22;25972;51.854;4.534;2024-03-23T02:30:44;6.50;99.90
40253;DHT22;25972;51.854;4.534;2024-03-23T02:33:10;6.50;99.90
40253;DHT22;25972;51.854;4.534;2024-03-23T02:35:36;6.40;99.90
40253;DHT22;25972;51.854;4.534;2024-03-23T02:38:01;6.50;99.90
40253;DHT22;25972;51.854;4.534;2024-03-23T02:40:29;6.50;99.90
40253;DHT22;25972;51.854;4.534;2024-03-23T02:42:55;6.50;99.90
40253;DHT22;25972;51.854;4.534;2024-03-23T02:45:20;6.40;99.90
40253;DHT22;25972;51.854;4.534;2024-03-23T02:47:46;6.40;99.90
40253;DHT22;25972;51.854;4.534;2024-03-23T02:50:12;6.40;99.90
40253;DHT22;25972;51.854;4.534;2024-03-23T02:52:38;6.40;99.90
40253;DHT22;25972;51.854;4.534;2024-03-23T02:55:04;6.40;99.90
40253;DHT22;25972;51.854;4.534;2024-03-23T02:57:32;6.30;99.90
40253;DHT22;25972;51.854;4.534;2024-03-23T02:59:58;6.40;99.90
40253;DHT22;25972;51.854;4.534;2024-03-23T03:02:24;6.30;99.90
40253;DHT22;25972;51.854;4.534;2024-03-23T03:04:49;6.30;99.90
40253;DHT22;25972;51.854;4.534;2024-03-23T03:07:15;6.30;99.90
40253;DHT22;25972;51.854;4.534;2024-03-23T03:09:41;6.30;99.90
40253;DHT22;25972;51.854;4.534;2024-03-23T03:12:07;6.20;99.90
40253;DHT22;25972;51.854;4.534;2024-03-23T03:14:33;6.20;99.90
40253;DHT22;25972;51.854;4.534;2024-03-23T03:16:58;6.20;99.90
40253;DHT22;25972;51.854;4.534;2024-03-23T03:19:24;6.10;99.90
40253;DHT22;25972;51.854;4.534;2024-03-23T03:21:50;6.00;99.90
40253;DHT22;25972;51.854;4.534;2024-03-23T03:24:15;6.00;99.90
40253;DHT22;25972;51.854;4.534;2024-03-23T03:26:41;6.00;99.90
40253;DHT22;25972;51.854;4.534;2024-03-23T03:29:07;5.90;99.90
40253;DHT22;25972;51.854;4.534;2024-03-23T03:31:32;5.90;99.90
40253;DHT22;25972;51.854;4.534;2024-03-23T03:33:58;5.90;99.90
40253;DHT22;25972;51.854;4.534;2024-03-23T03:36:23;5.90;99.90
40253;DHT22;25972;51.854;4.534;2024-03-23T03:38:49;5.90;99.90
40253;DHT22;25972;51.854;4.534;2024-03-23T03:41:15;5.80;99.90
40253;DHT22;25972;51.854;4.534;2024-03-23T03:43:41;5.80;99.90
40253;DHT22;25972;51.854;4.534;2024-03-23T03:46:06;5.70;99.90
40253;DHT22;25972;51.854;4.534;2024-03-23T03:48:33;5.70;99.90
40253;DHT22;25972;51.854;4.534;2024-03-23T03:50:59;5.70;99.90
40253;DHT22;25972;51.854;4.534;2024-03-23T03:53:25;5.70;99.90
40253;DHT22;25972;51.854;4.534;2024-03-23T03:55:50;5.70;99.90
40253;DHT22;25972;51.854;4.534;2024-03-23T03:58:16;5.70;99.90
40253;DHT22;25972;51.854;4.534;2024-03-23T04:00:42;5.60;99.90
40253;DHT22;25972;51.854;4.534;2024-03-23T04:03:07;5.70;99.90
40253;DHT22;25972;51.854;4.534;2024-03-23T04:05:33;5.60;99.90
40253;DHT22;25972;51.854;4.534;2024-03-23T04:07:58;5.60;99.90
40253;DHT22;25972;51.854;4.534;2024-03-23T04:10:24;5.60;99.90
40253;DHT22;25972;51.854;4.534;2024-03-23T04:12:50;5.60;99.90
40253;DHT22;25972;51.854;4.534;2024-03-23T04:15:16;5.70;99.90
40253;DHT22;25972;51.854;4.534;2024-03-23T04:17:42;5.60;99.90
40253;DHT22;25972;51.854;4.534;2024-03-23T04:20:08;5.60;99.90
40253;DHT22;25972;51.854;4.534;2024-03-23T04:22:37;5.50;99.90
40253;DHT22;25972;51.854;4.534;2024-03-23T04:25:03;5.50;99.90
40253;DHT22;25972;51.854;4.534;2024-03-23T04:27:35;5.50;99.90
40253;DHT22;25972;51.854;4.534;2024-03-23T04:30:01;5.50;99.90
40253;DHT22;25972;51.854;4.534;2024-03-23T04:32:28;5.50;99.90
40253;DHT22;25972;51.854;4.534;2024-03-23T04:34:54;5.40;99.90
40253;DHT22;25972;51.854;4.534;2024-03-23T04:37:20;5.40;99.90
40253;DHT22;25972;51.854;4.534;2024-03-23T04:39:46;5.40;99.90
40253;DHT22;25972;51.854;4.534;2024-03-23T04:42:14;5.30;99.90
40253;DHT22;25972;51.854;4.534;2024-03-23T04:44:41;5.40;99.90
40253;DHT22;25972;51.854;4.534;2024-03-23T04:47:07;5.40;99.90
40253;DHT22;25972;51.854;4.534;2024-03-23T04:49:32;5.40;99.90
40253;DHT22;25972;51.854;4.534;2024-03-23T04:51:58;5.40;99.90
40253;DHT22;25972;51.854;4.534;2024-03-23T04:54:24;5.30;99.90
40253;DHT22;25972;51.854;4.534;2024-03-23T04:56:49;5.40;99.90
40253;DHT22;25972;51.854;4.534;2024-03-23T04:59:15;5.40;99.90
40253;DHT22;25972;51.854;4.534;2024-03-23T05:01:42;5.50;99.90
40253;DHT22;25972;51.854;4.534;2024-03-23T05:04:08;5.60;99.90
40253;DHT22;25972;51.854;4.534;2024-03-23T05:06:34;5.60;99.90
40253;DHT22;25972;51.854;4.534;2024-03-23T05:09:00;5.70;99.90
40253;DHT22;25972;51.854;4.534;2024-03-23T05:11:32;5.80;99.90
40253;DHT22;25972;51.854;4.534;2024-03-23T05:13:57;5.80;99.90
40253;DHT22;25972;51.854;4.534;2024-03-23T05:16:23;5.80;99.90
40253;DHT22;25972;51.854;4.534;2024-03-23T05:18:49;5.80;99.90
40253;DHT22;25972;51.854;4.534;2024-03-23T05:21:14;5.90;99.90
40253;DHT22;25972;51.854;4.534;2024-03-23T05:23:40;5.90;99.90
40253;DHT22;25972;51.854;4.534;2024-03-23T05:26:06;6.00;99.90
40253;DHT22;25972;51.854;4.534;2024-03-23T05:28:31;6.00;99.90
40253;DHT22;25972;51.854;4.534;2024-03-23T05:30:57;6.00;99.90
40253;DHT22;25972;51.854;4.534;2024-03-23T05:33:23;6.00;99.90
40253;DHT22;25972;51.854;4.534;2024-03-23T05:35:57;6.00;99.90
40253;DHT22;25972;51.854;4.534;2024-03-23T05:38:23;6.00;99.90
40253;DHT22;25972;51.854;4.534;2024-03-23T05:40:55;6.10;99.90
40253;DHT22;25972;51.854;4.534;2024-03-23T05:43:22;6.10;99.90
40253;DHT22;25972;51.854;4.534;2024-03-23T05:45:57;6.10;99.90
40253;DHT22;25972;51.854;4.534;2024-03-23T05:48:24;6.20;99.90
40253;DHT22;25972;51.854;4.534;2024-03-23T05:50:50;6.20;99.90
40253;DHT22;25972;51.854;4.534;2024-03-23T05:53:16;6.20;99.90
40253;DHT22;25972;51.854;4.534;2024-03-23T05:55:42;6.20;99.90
40253;DHT22;25972;51.854;4.534;2024-03-23T05:58:08;6.30;99.90
40253;DHT22;25972;51.854;4.534;2024-03-23T06:00:34;6.30;99.90
40253;DHT22;25972;51.854;4.534;2024-03-23T06:03:00;6.40;99.90
40253;DHT22;25972;51.854;4.534;2024-03-23T06:05:25;6.40;99.90
40253;DHT22;25972;51.854;4.534;2024-03-23T06:07:51;6.40;99.90
40253;DHT22;25972;51.854;4.534;2024-03-23T06:10:18;6.50;99.90
40253;DHT22;25972;51.854;4.534;2024-03-23T06:12:45;6.60;99.90
40253;DHT22;25972;51.854;4.534;2024-03-23T06:15:11;6.70;99.90
40253;DHT22;25972;51.854;4.534;2024-03-23T06:17:38;6.70;99.90
40253;DHT22;25972;51.854;4.534;2024-03-23T06:20:04;6.70;99.90
40253;DHT22;25972;51.854;4.534;2024-03-23T06:22:31;6.70;99.90
40253;DHT22;25972;51.854;4.534;2024-03-23T06:24:57;6.70;99.90
40253;DHT22;25972;51.854;4.534;2024-03-23T06:27:23;6.70;99.90
40253;DHT22;25972;51.854;4.534;2024-03-23T06:29:48;6.70;99.90
40253;DHT22;25972;51.854;4.534;2024-03-23T06:32:14;6.70;99.90
40253;DHT22;25972;51.854;4.534;2024-03-23T06:34:42;6.70;99.90
40253;DHT22;25972;51.854;4.534;2024-03-23T06:37:08;6.70;99.90
40253;DHT22;25972;51.854;4.534;2024-03-23T06:39:38;6.80;99.90
40253;DHT22;25972;51.854;4.534;2024-03-23T06:42:04;6.80;99.90
40253;DHT22;25972;51.854;4.534;2024-03-23T06:44:30;6.80;99.90
40253;DHT22;25972;51.854;4.534;2024-03-23T06:46:56;6.90;99.90
40253;DHT22;25972;51.854;4.534;2024-03-23T06:49:23;6.90;99.90
40253;DHT22;25972;51.854;4.534;2024-03-23T06:51:49;6.90;99.90
40253;DHT22;25972;51.854;4.534;2024-03-23T06:54:16;7.00;99.90
40253;DHT22;25972;51.854;4.534;2024-03-23T06:56:41;7.10;99.90
40253;DHT22;25972;51.854;4.534;2024-03-23T06:59:07;7.20;99.90
40253;DHT22;25972;51.854;4.534;2024-03-23T07:01:33;7.30;99.90
40253;DHT22;25972;51.854;4.534;2024-03-23T07:03:59;7.40;99.90
40253;DHT22;25972;51.854;4.534;2024-03-23T07:06:25;7.50;99.90
40253;DHT22;25972;51.854;4.534;2024-03-23T07:08:52;7.50;99.90
40253;DHT22;25972;51.854;4.534;2024-03-23T07:11:22;7.50;99.90
40253;DHT22;25972;51.854;4.534;2024-03-23T07:13:50;7.70;99.90
40253;DHT22;25972;51.854;4.534;2024-03-23T07:16:16;7.80;99.90
40253;DHT22;25972;51.854;4.534;2024-03-23T07:18:42;7.90;99.90
40253;DHT22;25972;51.854;4.534;2024-03-23T07:21:08;8.00;99.90
40253;DHT22;25972;51.854;4.534;2024-03-23T07:23:33;8.20;99.90
40253;DHT22;25972;51.854;4.534;2024-03-23T07:26:03;8.30;99.90
40253;DHT22;25972;51.854;4.534;2024-03-23T07:28:30;8.30;99.90
40253;DHT22;25972;51.854;4.534;2024-03-23T07:31:08;8.40;90.60
40253;DHT22;25972;51.854;4.534;2024-03-23T07:33:41;8.50;47.20
40253;DHT22;25972;51.854;4.534;2024-03-23T07:36:07;8.60;27.20
40253;DHT22;25972;51.854;4.534;2024-03-23T07:38:32;8.70;10.80
40253;DHT22;25972;51.854;4.534;2024-03-23T07:41:05;8.60;1.00
40253;DHT22;25972;51.854;4.534;2024-03-23T07:43:31;8.60;1.00
40253;DHT22;25972;51.854;4.534;2024-03-23T07:45:57;8.50;1.00
40253;DHT22;25972;51.854;4.534;2024-03-23T07:48:22;8.50;1.00
40253;DHT22;25972;51.854;4.534;2024-03-23T07:51:07;8.50;1.00
40253;DHT22;25972;51.854;4.534;2024-03-23T07:53:34;8.50;1.00
40253;DHT22;25972;51.854;4.534;2024-03-23T07:56:07;8.40;1.00
40253;DHT22;25972;51.854;4.534;2024-03-23T07:58:34;8.50;1.00
40253;DHT22;25972;51.854;4.534;2024-03-23T08:01:07;8.60;1.00
40253;DHT22;25972;51.854;4.534;2024-03-23T08:03:36;8.70;1.00
40253;DHT22;25972;51.854;4.534;2024-03-23T08:06:12;9.00;1.00
40253;DHT22;25972;51.854;4.534;2024-03-23T08:08:39;9.20;1.00
40253;DHT22;25972;51.854;4.534;2024-03-23T08:11:05;9.30;1.00
40253;DHT22;25972;51.854;4.534;2024-03-23T08:13:31;9.50;1.00
40253;DHT22;25972;51.854;4.534;2024-03-23T08:16:01;9.50;1.00
40253;DHT22;25972;51.854;4.534;2024-03-23T08:18:26;9.50;1.00
40253;DHT22;25972;51.854;4.534;2024-03-23T08:21:00;9.70;1.00
40253;DHT22;25972;51.854;4.534;2024-03-23T08:23:27;9.80;1.00
40253;DHT22;25972;51.854;4.534;2024-03-23T08:26:23;10.00;1.00
40253;DHT22;25972;51.854;4.534;2024-03-23T08:28:48;10.00;1.00
40253;DHT22;25972;51.854;4.534;2024-03-23T08:31:14;10.00;1.00
40253;DHT22;25972;51.854;4.534;2024-03-23T08:33:40;9.90;1.00
40253;DHT22;25972;51.854;4.534;2024-03-23T08:36:09;9.90;1.00
40253;DHT22;25972;51.854;4.534;2024-03-23T08:38:38;9.80;1.00
40253;DHT22;25972;51.854;4.534;2024-03-23T08:41:08;9.60;1.00
40253;DHT22;25972;51.854;4.534;2024-03-23T08:43:41;9.70;1.00
40253;DHT22;25972;51.854;4.534;2024-03-23T08:46:15;9.70;1.00
40253;DHT22;25972;51.854;4.534;2024-03-23T08:48:44;9.80;1.00
40253;DHT22;25972;51.854;4.534;2024-03-23T08:51:12;9.70;1.00
40253;DHT22;25972;51.854;4.534;2024-03-23T08:53:38;9.80;1.00
40253;DHT22;25972;51.854;4.534;2024-03-23T08:56:05;9.80;1.00
40253;DHT22;25972;51.854;4.534;2024-03-23T08:58:32;10.10;1.00
40253;DHT22;25972;51.854;4.534;2024-03-23T09:01:08;10.10;1.00
40253;DHT22;25972;51.854;4.534;2024-03-23T09:03:35;10.30;1.00
40253;DHT22;25972;51.854;4.534;2024-03-23T09:06:01;10.50;1.00
40253;DHT22;25972;51.854;4.534;2024-03-23T09:08:27;10.70;1.00
40253;DHT22;25972;51.854;4.534;2024-03-23T09:10:53;10.80;1.00
40253;DHT22;25972;51.854;4.534;2024-03-23T09:13:21;10.60;1.00
40253;DHT22;25972;51.854;4.534;2024-03-23T09:15:51;10.50;1.00
40253;DHT22;25972;51.854;4.534;2024-03-23T09:18:17;10.50;1.00
40253;DHT22;25972;51.854;4.534;2024-03-23T09:20:43;10.50;1.00
40253;DHT22;25972;51.854;4.534;2024-03-23T09:23:08;10.40;1.00
40253;DHT22;25972;51.854;4.534;2024-03-23T09:25:38;10.10;1.00
40253;DHT22;25972;51.854;4.534;2024-03-23T09:28:05;10.10;1.00
40253;DHT22;25972;51.854;4.534;2024-03-23T09:30:32;10.20;1.00
40253;DHT22;25972;51.854;4.534;2024-03-23T09:32:58;10.30;1.00
40253;DHT22;25972;51.854;4.534;2024-03-23T09:35:23;10.30;1.00
40253;DHT22;25972;51.854;4.534;2024-03-23T09:37:49;10.60;1.00
40253;DHT22;25972;51.854;4.534;2024-03-23T09:40:15;10.80;1.00
40253;DHT22;25972;51.854;4.534;2024-03-23T09:42:42;11.00;1.00
40253;DHT22;25972;51.854;4.534;2024-03-23T09:45:26;10.80;1.00
40253;DHT22;25972;51.854;4.534;2024-03-23T09:47:52;11.10;1.00
40253;DHT22;25972;51.854;4.534;2024-03-23T09:50:18;11.00;1.00
40253;DHT22;25972;51.854;4.534;2024-03-23T09:52:46;11.20;1.00
40253;DHT22;25972;51.854;4.534;2024-03-23T09:55:11;11.20;1.00
40253;DHT22;25972;51.854;4.534;2024-03-23T09:57:37;11.50;1.00
40253;DHT22;25972;51.854;4.534;2024-03-23T10:00:03;11.70;1.00
40253;DHT22;25972;51.854;4.534;2024-03-23T10:02:29;11.80;1.00
40253;DHT22;25972;51.854;4.534;2024-03-23T10:04:55;11.80;1.00
40253;DHT22;25972;51.854;4.534;2024-03-23T10:07:21;11.80;1.00
40253;DHT22;25972;51.854;4.534;2024-03-23T10:09:48;11.80;1.00
40253;DHT22;25972;51.854;4.534;2024-03-23T10:12:15;11.40;1.00
40253;DHT22;25972;51.854;4.534;2024-03-23T10:14:41;11.20;1.00
40253;DHT22;25972;51.854;4.534;2024-03-23T10:17:27;11.10;1.00
40253;DHT22;25972;51.854;4.534;2024-03-23T10:19:55;10.70;1.00
40253;DHT22;25972;51.854;4.534;2024-03-23T10:22:22;10.60;1.00
40253;DHT22;25972;51.854;4.534;2024-03-23T10:24:49;10.50;1.00
40253;DHT22;25972;51.854;4.534;2024-03-23T10:27:19;10.50;1.00
40253;DHT22;25972;51.854;4.534;2024-03-23T10:29:48;10.40;1.00
40253;DHT22;25972;51.854;4.534;2024-03-23T10:32:15;10.70;1.00
40253;DHT22;25972;51.854;4.534;2024-03-23T10:34:41;11.00;1.00
40253;DHT22;25972;51.854;4.534;2024-03-23T10:37:07;11.20;1.00
40253;DHT22;25972;51.854;4.534;2024-03-23T10:39:35;11.30;1.00
40253;DHT22;25972;51.854;4.534;2024-03-23T10:42:02;11.40;1.00
40253;DHT22;25972;51.854;4.534;2024-03-23T10:44:29;11.40;1.00
40253;DHT22;25972;51.854;4.534;2024-03-23T10:47:00;11.40;1.00
40253;DHT22;25972;51.854;4.534;2024-03-23T10:49:28;11.40;1.00
40253;DHT22;25972;51.854;4.534;2024-03-23T10:51:58;11.40;1.00
40253;DHT22;25972;51.854;4.534;2024-03-23T10:54:25;11.20;1.00
40253;DHT22;25972;51.854;4.534;2024-03-23T10:59:26;10.60;1.00
40253;DHT22;25972;51.854;4.534;2024-03-23T11:01:56;10.40;1.00
40253;DHT22;25972;51.854;4.534;2024-03-23T11:04:31;10.10;1.00
40253;DHT22;25972;51.854;4.534;2024-03-23T11:06:57;9.90;1.00
40253;DHT22;25972;51.854;4.534;2024-03-23T11:14:45;9.60;1.00
40253;DHT22;25972;51.854;4.534;2024-03-23T11:17:11;9.60;1.00
40253;DHT22;25972;51.854;4.534;2024-03-23T11:19:37;9.60;1.00
40253;DHT22;25972;51.854;4.534;2024-03-23T11:22:04;9.50;1.00
40253;DHT22;25972;51.854;4.534;2024-03-23T11:24:31;9.60;1.00
40253;DHT22;25972;51.854;4.534;2024-03-23T11:26:56;9.70;1.00
40253;DHT22;25972;51.854;4.534;2024-03-23T11:29:26;9.70;1.00
40253;DHT22;25972;51.854;4.534;2024-03-23T11:31:52;9.60;1.00
40253;DHT22;25972;51.854;4.534;2024-03-23T11:34:22;9.60;1.00
40253;DHT22;25972;51.854;4.534;2024-03-23T11:36:48;9.60;1.00
40253;DHT22;25972;51.854;4.534;2024-03-23T11:41:56;9.80;1.00
40253;DHT22;25972;51.854;4.534;2024-03-23T11:44:25;9.80;1.00
40253;DHT22;25972;51.854;4.534;2024-03-23T11:46:51;9.70;1.00
40253;DHT22;25972;51.854;4.534;2024-03-23T11:51:50;9.60;1.00
40253;DHT22;25972;51.854;4.534;2024-03-23T11:54:16;9.60;1.00
40253;DHT22;25972;51.854;4.534;2024-03-23T11:56:57;9.80;1.00
40253;DHT22;25972;51.854;4.534;2024-03-23T11:59:49;10.00;1.00
40253;DHT22;25972;51.854;4.534;2024-03-23T12:02:18;10.10;1.00
40253;DHT22;25972;51.854;4.534;2024-03-23T12:04:44;10.30;1.00
40253;DHT22;25972;51.854;4.534;2024-03-23T12:07:20;10.40;1.00
40253;DHT22;25972;51.854;4.534;2024-03-23T12:10:06;10.40;1.00
40253;DHT22;25972;51.854;4.534;2024-03-23T12:12:32;10.50;1.00
40253;DHT22;25972;51.854;4.534;2024-03-23T12:15:10;10.50;1.00
40253;DHT22;25972;51.854;4.534;2024-03-23T12:17:38;10.40;1.00
40253;DHT22;25972;51.854;4.534;2024-03-23T12:20:04;10.30;1.00
40253;DHT22;25972;51.854;4.534;2024-03-23T12:22:30;10.30;1.00
40253;DHT22;25972;51.854;4.534;2024-03-23T12:24:56;10.40;1.00
40253;DHT22;25972;51.854;4.534;2024-03-23T12:27:22;10.40;1.00
40253;DHT22;25972;51.854;4.534;2024-03-23T12:29:49;10.30;1.00
40253;DHT22;25972;51.854;4.534;2024-03-23T12:32:15;10.10;1.00
40253;DHT22;25972;51.854;4.534;2024-03-23T12:34:41;9.90;1.00
40253;DHT22;25972;51.854;4.534;2024-03-23T12:37:07;9.50;1.00
40253;DHT22;25972;51.854;4.534;2024-03-23T12:39:33;9.60;1.00
40253;DHT22;25972;51.854;4.534;2024-03-23T12:42:01;9.70;1.00
40253;DHT22;25972;51.854;4.534;2024-03-23T12:44:28;9.60;1.00
40253;DHT22;25972;51.854;4.534;2024-03-23T12:46:57;9.60;1.00
40253;DHT22;25972;51.854;4.534;2024-03-23T12:49:22;9.70;1.00
40253;DHT22;25972;51.854;4.534;2024-03-23T12:51:54;9.80;1.00
40253;DHT22;25972;51.854;4.534;2024-03-23T12:54:21;9.90;1.00
40253;DHT22;25972;51.854;4.534;2024-03-23T12:56:46;10.10;1.00
40253;DHT22;25972;51.854;4.534;2024-03-23T12:59:12;10.20;1.00
40253;DHT22;25972;51.854;4.534;2024-03-23T13:01:39;10.30;1.00
40253;DHT22;25972;51.854;4.534;2024-03-23T13:04:05;10.30;1.00
40253;DHT22;25972;51.854;4.534;2024-03-23T13:06:30;10.30;1.00
40253;DHT22;25972;51.854;4.534;2024-03-23T13:09:03;10.50;1.00
40253;DHT22;25972;51.854;4.534;2024-03-23T13:11:30;10.60;1.00
40253;DHT22;25972;51.854;4.534;2024-03-23T13:13:56;10.70;1.00
40253;DHT22;25972;51.854;4.534;2024-03-23T13:16:21;10.60;1.00
40253;DHT22;25972;51.854;4.534;2024-03-23T13:18:47;10.70;1.00
40253;DHT22;25972;51.854;4.534;2024-03-23T13:21:13;10.70;1.00
40253;DHT22;25972;51.854;4.534;2024-03-23T13:23:39;10.40;1.00
40253;DHT22;25972;51.854;4.534;2024-03-23T13:26:07;10.40;1.00
40253;DHT22;25972;51.854;4.534;2024-03-23T13:28:33;10.40;1.00
40253;DHT22;25972;51.854;4.534;2024-03-23T13:30:59;10.50;1.00
40253;DHT22;25972;51.854;4.534;2024-03-23T13:33:29;10.40;1.00
40253;DHT22;25972;51.854;4.534;2024-03-23T13:35:56;10.30;1.00
40253;DHT22;25972;51.854;4.534;2024-03-23T13:38:24;10.20;1.00
40253;DHT22;25972;51.854;4.534;2024-03-23T13:40:57;10.10;1.00
40253;DHT22;25972;51.854;4.534;2024-03-23T13:43:24;10.20;1.00
40253;DHT22;25972;51.854;4.534;2024-03-23T13:45:57;10.30;1.00
40253;DHT22;25972;51.854;4.534;2024-03-23T13:48:24;10.40;1.00
40253;DHT22;25972;51.854;4.534;2024-03-23T13:51:04;10.40;1.00
40253;DHT22;25972;51.854;4.534;2024-03-23T13:53:31;10.30;1.00
40253;DHT22;25972;51.854;4.534;2024-03-23T13:55:58;10.10;1.00
40253;DHT22;25972;51.854;4.534;2024-03-23T13:58:23;9.80;1.00
40253;DHT22;25972;51.854;4.534;2024-03-23T14:00:51;9.40;1.00
40253;DHT22;25972;51.854;4.534;2024-03-23T14:03:19;9.20;1.00
40253;DHT22;25972;51.854;4.534;2024-03-23T14:05:45;8.90;1.00
40253;DHT22;25972;51.854;4.534;2024-03-23T14:08:12;8.80;1.00
40253;DHT22;25972;51.854;4.534;2024-03-23T14:10:42;8.70;1.00
40253;DHT22;25972;51.854;4.534;2024-03-23T14:13:08;8.80;1.00
40253;DHT22;25972;51.854;4.534;2024-03-23T14:15:33;8.80;1.00
40253;DHT22;25972;51.854;4.534;2024-03-23T14:18:00;9.00;1.00
40253;DHT22;25972;51.854;4.534;2024-03-23T14:20:26;9.10;1.00
40253;DHT22;25972;51.854;4.534;2024-03-23T14:22:52;9.10;1.00
40253;DHT22;25972;51.854;4.534;2024-03-23T14:25:18;8.90;1.00
40253;DHT22;25972;51.854;4.534;2024-03-23T14:27:45;9.00;1.00
40253;DHT22;25972;51.854;4.534;2024-03-23T14:30:11;9.10;1.00
40253;DHT22;25972;51.854;4.534;2024-03-23T14:32:38;9.10;1.00
40253;DHT22;25972;51.854;4.534;2024-03-23T14:35:04;9.20;1.00
40253;DHT22;25972;51.854;4.534;2024-03-23T14:37:30;9.30;1.00
40253;DHT22;25972;51.854;4.534;2024-03-23T14:39:56;9.20;1.00
40253;DHT22;25972;51.854;4.534;2024-03-23T14:42:28;9.30;1.00
40253;DHT22;25972;51.854;4.534;2024-03-23T14:44:53;9.40;1.00
40253;DHT22;25972;51.854;4.534;2024-03-23T14:47:19;9.30;1.00
40253;DHT22;25972;51.854;4.534;2024-03-23T14:49:46;9.20;1.00
40253;DHT22;25972;51.854;4.534;2024-03-23T14:52:19;9.30;1.00
40253;DHT22;25972;51.854;4.534;2024-03-23T14:54:45;9.20;1.00
40253;DHT22;25972;51.854;4.534;2024-03-23T14:57:11;9.00;1.00
40253;DHT22;25972;51.854;4.534;2024-03-23T14:59:37;8.90;1.00
40253;DHT22;25972;51.854;4.534;2024-03-23T15:02:08;8.80;1.00
40253;DHT22;25972;51.854;4.534;2024-03-23T15:04:34;8.80;1.00
40253;DHT22;25972;51.854;4.534;2024-03-23T15:07:01;8.80;1.00
40253;DHT22;25972;51.854;4.534;2024-03-23T15:09:27;8.90;1.00
40253;DHT22;25972;51.854;4.534;2024-03-23T15:11:52;8.90;1.00
40253;DHT22;25972;51.854;4.534;2024-03-23T15:14:20;8.80;1.00
40253;DHT22;25972;51.854;4.534;2024-03-23T15:16:46;8.90;1.00
40253;DHT22;25972;51.854;4.534;2024-03-23T15:19:14;9.00;1.00
40253;DHT22;25972;51.854;4.534;2024-03-23T15:21:40;9.10;1.00
40253;DHT22;25972;51.854;4.534;2024-03-23T15:24:06;9.20;1.00
40253;DHT22;25972;51.854;4.534;2024-03-23T15:26:33;9.10;1.00
40253;DHT22;25972;51.854;4.534;2024-03-23T15:28:59;9.10;1.00
40253;DHT22;25972;51.854;4.534;2024-03-23T15:31:25;9.10;1.00
40253;DHT22;25972;51.854;4.534;2024-03-23T15:33:51;9.10;1.00
40253;DHT22;25972;51.854;4.534;2024-03-23T15:36:17;9.20;1.00
40253;DHT22;25972;51.854;4.534;2024-03-23T15:38:43;9.20;1.00
40253;DHT22;25972;51.854;4.534;2024-03-23T15:41:09;9.40;1.00
40253;DHT22;25972;51.854;4.534;2024-03-23T15:43:35;9.70;1.00
40253;DHT22;25972;51.854;4.534;2024-03-23T15:46:03;9.80;1.00
40253;DHT22;25972;51.854;4.534;2024-03-23T15:48:30;9.90;1.00
40253;DHT22;25972;51.854;4.534;2024-03-23T15:51:00;10.00;1.00
40253;DHT22;25972;51.854;4.534;2024-03-23T15:53:26;9.90;1.00
40253;DHT22;25972;51.854;4.534;2024-03-23T15:56:03;9.90;1.00
40253;DHT22;25972;51.854;4.534;2024-03-23T15:58:30;9.80;1.00
40253;DHT22;25972;51.854;4.534;2024-03-23T16:01:03;9.80;1.00
40253;DHT22;25972;51.854;4.534;2024-03-23T16:03:29;9.70;1.00
40253;DHT22;25972;51.854;4.534;2024-03-23T16:05:58;9.50;1.00
40253;DHT22;25972;51.854;4.534;2024-03-23T16:08:24;9.40;1.00
40253;DHT22;25972;51.854;4.534;2024-03-23T16:10:50;9.40;1.00
40253;DHT22;25972;51.854;4.534;2024-03-23T16:13:17;9.20;1.00
40253;DHT22;25972;51.854;4.534;2024-03-23T16:15:44;9.10;1.00
40253;DHT22;25972;51.854;4.534;2024-03-23T16:18:10;9.00;1.00
40253;DHT22;25972;51.854;4.534;2024-03-23T16:20:36;8.80;1.00
40253;DHT22;25972;51.854;4.534;2024-03-23T16:23:03;8.80;1.00
40253;DHT22;25972;51.854;4.534;2024-03-23T16:25:29;8.70;1.00
40253;DHT22;25972;51.854;4.534;2024-03-23T16:27:56;8.80;1.00
40253;DHT22;25972;51.854;4.534;2024-03-23T16:30:22;8.80;1.00
40253;DHT22;25972;51.854;4.534;2024-03-23T16:32:48;9.00;1.00
40253;DHT22;25972;51.854;4.534;2024-03-23T16:35:14;9.00;1.00
40253;DHT22;25972;51.854;4.534;2024-03-23T16:37:40;9.00;1.00
40253;DHT22;25972;51.854;4.534;2024-03-23T16:40:07;9.00;1.00
40253;DHT22;25972;51.854;4.534;2024-03-23T16:42:34;9.10;1.00
40253;DHT22;25972;51.854;4.534;2024-03-23T16:45:00;9.10;1.00
40253;DHT22;25972;51.854;4.534;2024-03-23T16:47:26;9.20;1.00
40253;DHT22;25972;51.854;4.534;2024-03-23T16:49:53;9.20;1.00
40253;DHT22;25972;51.854;4.534;2024-03-23T16:52:18;9.20;1.00
40253;DHT22;25972;51.854;4.534;2024-03-23T16:54:44;9.20;1.00
40253;DHT22;25972;51.854;4.534;2024-03-23T16:57:10;9.10;1.00
40253;DHT22;25972;51.854;4.534;2024-03-23T16:59:35;9.00;1.00